createdAt,value
2016-12-08T00:00:36.211Z,746.74
2016-12-08T00:01:36.203Z,746.75
2016-12-08T00:02:36.181Z,746.74
2016-12-08T00:03:36.167Z,746.75
2016-12-08T00:04:36.157Z,746.73
2016-12-08T00:05:36.136Z,746.72
2016-12-08T00:06:36.127Z,746.74
2016-12-08T00:07:36.106Z,746.74
2016-12-08T00:08:36.090Z,746.75
2016-12-08T00:09:36.075Z,746.71
2016-12-08T00:10:36.068Z,746.71
2016-12-08T00:11:36.052Z,746.72
2016-12-08T00:12:36.037Z,746.73
2016-12-08T00:13:36.015Z,746.71
2016-12-08T00:14:36.008Z,746.7
2016-12-08T00:15:35.985Z,746.67
2016-12-08T00:16:35.979Z,746.7
2016-12-08T00:17:35.961Z,746.65
2016-12-08T00:18:35.948Z,746.62
2016-12-08T00:19:35.924Z,746.68
2016-12-08T00:20:35.909Z,746.66
2016-12-08T00:21:35.894Z,746.69
2016-12-08T00:22:35.878Z,746.69
2016-12-08T00:23:35.863Z,746.68
2016-12-08T00:24:35.854Z,746.67
2016-12-08T00:25:35.833Z,746.69
2016-12-08T00:26:35.824Z,746.72
2016-12-08T00:27:35.808Z,746.67
2016-12-08T00:28:35.787Z,746.68
2016-12-08T00:29:35.778Z,746.67
2016-12-08T00:30:35.756Z,746.65
2016-12-08T00:31:35.741Z,746.67
2016-12-08T00:32:35.726Z,746.66
2016-12-08T00:33:35.718Z,746.7
2016-12-08T00:34:35.695Z,746.72
2016-12-08T00:35:35.680Z,746.72
2016-12-08T00:36:35.672Z,746.74
2016-12-08T00:37:35.655Z,746.69
2016-12-08T00:38:35.641Z,746.67
2016-12-08T00:39:35.625Z,746.7
2016-12-08T00:40:35.604Z,746.69
2016-12-08T00:41:35.588Z,746.68
2016-12-08T00:42:35.574Z,746.7
2016-12-08T00:43:35.564Z,746.7
2016-12-08T00:44:35.542Z,746.71
2016-12-08T00:45:35.527Z,746.69
2016-12-08T00:46:35.519Z,746.7
2016-12-08T00:47:35.503Z,746.72
2016-12-08T00:48:35.481Z,746.74
2016-12-08T00:49:35.473Z,746.73
2016-12-08T00:50:35.458Z,746.68
2016-12-08T00:51:35.442Z,746.68
2016-12-08T00:52:35.420Z,746.71
2016-12-08T00:53:35.411Z,746.73
2016-12-08T00:54:35.396Z,746.76
2016-12-08T00:55:35.379Z,746.73
2016-12-08T00:56:35.365Z,746.77
2016-12-08T00:57:35.343Z,746.73
2016-12-08T00:58:35.336Z,746.78
2016-12-08T00:59:35.320Z,746.8
2016-12-08T01:00:35.297Z,746.77
2016-12-08T01:01:35.282Z,746.78
2016-12-08T01:02:35.267Z,746.77
2016-12-08T01:03:35.255Z,746.77
2016-12-08T01:04:35.237Z,746.73
2016-12-08T01:05:35.222Z,746.77
2016-12-08T01:06:35.206Z,746.74
2016-12-08T01:07:35.191Z,746.78
2016-12-08T01:08:35.176Z,746.78
2016-12-08T01:09:35.161Z,746.79
2016-12-08T01:10:35.147Z,746.78
2016-12-08T01:11:35.130Z,746.84
2016-12-08T01:12:35.123Z,746.76
2016-12-08T01:13:35.099Z,746.78
2016-12-08T01:14:35.091Z,746.79
2016-12-08T01:15:35.069Z,746.8
2016-12-08T01:16:35.061Z,746.81
2016-12-08T01:17:35.039Z,746.79
2016-12-08T01:18:35.032Z,746.82
2016-12-08T01:19:35.015Z,746.84
2016-12-08T01:20:34.994Z,746.82
2016-12-08T01:21:34.977Z,746.83
2016-12-08T01:22:34.970Z,746.82
2016-12-08T01:23:34.954Z,746.83
2016-12-08T01:24:34.939Z,746.84
2016-12-08T01:25:34.917Z,746.85
2016-12-08T01:26:34.909Z,746.89
2016-12-08T01:27:34.887Z,746.8
2016-12-08T01:28:34.871Z,746.87
2016-12-08T01:29:34.862Z,746.84
2016-12-08T01:30:34.848Z,746.85
2016-12-08T01:31:34.827Z,746.86
2016-12-08T01:32:34.816Z,746.88
2016-12-08T01:33:34.795Z,746.85
2016-12-08T01:34:34.787Z,746.88
2016-12-08T01:35:34.769Z,746.85
2016-12-08T01:36:34.755Z,746.83
2016-12-08T01:37:34.733Z,746.86
2016-12-08T01:38:34.718Z,746.87
2016-12-08T01:39:34.702Z,746.87
2016-12-08T01:40:34.687Z,746.82
2016-12-08T01:41:34.672Z,746.83
2016-12-08T01:42:34.667Z,746.85
2016-12-08T01:43:34.641Z,746.86
2016-12-08T01:44:34.633Z,746.88
2016-12-08T01:45:34.618Z,746.85
2016-12-08T01:46:34.601Z,746.83
2016-12-08T01:47:34.579Z,746.87
2016-12-08T01:48:34.564Z,746.86
2016-12-08T01:49:34.549Z,746.85
2016-12-08T01:50:34.532Z,746.88
2016-12-08T01:51:34.517Z,746.86
2016-12-08T01:52:34.502Z,746.86
2016-12-08T01:53:34.486Z,746.87
2016-12-08T01:54:34.478Z,746.84
2016-12-08T01:55:34.461Z,746.9
2016-12-08T01:56:34.440Z,746.89
2016-12-08T01:57:34.423Z,746.86
2016-12-08T01:58:34.408Z,746.86
2016-12-08T01:59:34.400Z,746.86
2016-12-08T02:00:34.378Z,746.88
2016-12-08T02:01:34.368Z,746.87
2016-12-08T02:02:34.352Z,746.88
2016-12-08T02:03:34.331Z,746.88
2016-12-08T02:04:34.315Z,746.92
2016-12-08T02:05:34.299Z,746.86
2016-12-08T02:06:34.284Z,746.9
2016-12-08T02:07:34.276Z,746.88
2016-12-08T02:08:34.253Z,746.88
2016-12-08T02:09:34.244Z,746.89
2016-12-08T02:10:34.223Z,746.88
2016-12-08T02:11:34.214Z,746.88
2016-12-08T02:12:34.192Z,746.86
2016-12-08T02:13:34.177Z,746.86
2016-12-08T02:14:34.161Z,746.84
2016-12-08T02:15:34.147Z,746.89
2016-12-08T02:16:34.137Z,746.87
2016-12-08T02:17:34.123Z,746.9
2016-12-08T02:18:34.107Z,746.89
2016-12-08T02:19:34.085Z,746.88
2016-12-08T02:20:34.070Z,746.85
2016-12-08T02:21:34.055Z,746.85
2016-12-08T02:22:34.039Z,746.87
2016-12-08T02:23:34.023Z,746.84
2016-12-08T02:24:34.008Z,746.8
2016-12-08T02:25:34.001Z,746.84
2016-12-08T02:26:33.986Z,746.84
2016-12-08T02:27:33.969Z,746.83
2016-12-08T02:28:33.955Z,746.87
2016-12-08T02:29:33.933Z,746.87
2016-12-08T02:30:33.917Z,746.84
2016-12-08T02:31:33.909Z,746.84
2016-12-08T02:32:33.887Z,746.84
2016-12-08T02:33:33.880Z,746.81
2016-12-08T02:34:33.864Z,746.87
2016-12-08T02:35:33.848Z,746.87
2016-12-08T02:36:33.827Z,746.84
2016-12-08T02:37:33.819Z,746.84
2016-12-08T02:38:33.805Z,746.83
2016-12-08T02:39:33.789Z,746.81
2016-12-08T02:40:33.768Z,746.77
2016-12-08T02:41:33.759Z,746.79
2016-12-08T02:42:33.744Z,746.79
2016-12-08T02:43:33.731Z,746.81
2016-12-08T02:44:33.717Z,746.8
2016-12-08T02:45:33.694Z,746.78
2016-12-08T02:46:33.686Z,746.77
2016-12-08T02:47:33.665Z,746.8
2016-12-08T02:48:33.656Z,746.81
2016-12-08T02:49:33.641Z,746.8
2016-12-08T02:50:33.620Z,746.79
2016-12-08T02:51:33.606Z,746.78
2016-12-08T02:52:33.597Z,746.82
2016-12-08T02:53:33.576Z,746.81
2016-12-08T02:54:33.562Z,746.79
2016-12-08T02:55:33.548Z,746.83
2016-12-08T02:56:33.539Z,746.8
2016-12-08T02:57:33.525Z,746.82
2016-12-08T02:58:33.503Z,746.83
2016-12-08T02:59:33.494Z,746.82
2016-12-08T03:00:33.481Z,746.84
2016-12-08T03:01:33.468Z,746.83
2016-12-08T03:02:33.445Z,746.81
2016-12-08T03:03:33.429Z,746.83
2016-12-08T03:04:33.415Z,746.78
2016-12-08T03:05:33.401Z,746.79
2016-12-08T03:06:33.386Z,746.81
2016-12-08T03:07:33.371Z,746.78
2016-12-08T03:08:33.363Z,746.8
2016-12-08T03:09:33.349Z,746.79
2016-12-08T03:10:33.334Z,746.79
2016-12-08T03:11:33.321Z,746.77
2016-12-08T03:12:33.299Z,746.8
2016-12-08T03:13:33.292Z,746.77
2016-12-08T03:14:33.277Z,746.78
2016-12-08T03:15:33.255Z,746.8
2016-12-08T03:16:33.240Z,746.78
2016-12-08T03:17:33.226Z,746.75
2016-12-08T03:18:33.217Z,746.77
2016-12-08T03:19:33.203Z,746.81
2016-12-08T03:20:33.189Z,746.81
2016-12-08T03:21:33.174Z,746.77
2016-12-08T03:22:33.153Z,746.79
2016-12-08T03:23:33.138Z,746.8
2016-12-08T03:24:33.130Z,746.79
2016-12-08T03:25:33.115Z,746.83
2016-12-08T03:26:33.101Z,746.78
2016-12-08T03:27:33.080Z,746.81
2016-12-08T03:28:33.072Z,746.82
2016-12-08T03:29:33.057Z,746.79
2016-12-08T03:30:33.036Z,746.82
2016-12-08T03:31:33.021Z,746.76
2016-12-08T03:32:33.006Z,746.81
2016-12-08T03:33:32.993Z,746.78
2016-12-08T03:34:32.984Z,746.75
2016-12-08T03:35:32.971Z,746.78
2016-12-08T03:36:32.954Z,746.8
2016-12-08T03:37:32.932Z,746.83
2016-12-08T03:38:32.925Z,746.79
2016-12-08T03:39:32.913Z,746.82
2016-12-08T03:40:32.888Z,746.8
2016-12-08T03:41:32.880Z,746.79
2016-12-08T03:42:32.866Z,746.82
2016-12-08T03:43:32.851Z,746.82
2016-12-08T03:44:32.835Z,746.82
2016-12-08T03:45:32.821Z,746.81
2016-12-08T03:46:32.807Z,746.79
2016-12-08T03:47:32.791Z,746.83
2016-12-08T03:48:32.776Z,746.82
2016-12-08T03:49:32.761Z,746.82
2016-12-08T03:50:32.747Z,746.82
2016-12-08T03:51:32.733Z,746.82
2016-12-08T03:52:32.718Z,746.81
2016-12-08T03:53:32.704Z,746.84
2016-12-08T03:54:32.688Z,746.81
2016-12-08T03:55:32.674Z,746.84
2016-12-08T03:56:32.674Z,746.83
2016-12-08T03:57:32.660Z,746.81
2016-12-08T03:58:32.644Z,746.79
2016-12-08T03:59:32.630Z,746.79
2016-12-08T04:00:32.615Z,746.84
2016-12-08T04:01:32.599Z,746.77
2016-12-08T04:02:32.585Z,746.77
2016-12-08T04:03:32.570Z,746.81
2016-12-08T04:04:32.556Z,746.81
2016-12-08T04:05:32.541Z,746.82
2016-12-08T04:06:32.526Z,746.84
2016-12-08T04:07:32.511Z,746.86
2016-12-08T04:08:32.497Z,746.88
2016-12-08T04:09:32.481Z,746.85
2016-12-08T04:10:32.467Z,746.87
2016-12-08T04:11:32.452Z,746.85
2016-12-08T04:12:32.436Z,746.9
2016-12-08T04:13:32.422Z,746.86
2016-12-08T04:14:32.407Z,746.87
2016-12-08T04:15:32.393Z,746.94
2016-12-08T04:16:32.378Z,746.91
2016-12-08T04:17:32.363Z,746.91
2016-12-08T04:18:32.551Z,746.93
2016-12-08T04:19:32.334Z,746.9
2016-12-08T04:20:32.319Z,746.89
2016-12-08T04:21:32.304Z,746.9
2016-12-08T04:22:32.291Z,746.88
2016-12-08T04:23:32.274Z,746.91
2016-12-08T04:24:32.260Z,746.91
2016-12-08T04:25:32.245Z,746.92
2016-12-08T04:26:32.231Z,746.92
2016-12-08T04:27:32.215Z,746.98
2016-12-08T04:28:32.201Z,746.96
2016-12-08T04:29:32.186Z,746.93
2016-12-08T04:30:32.173Z,746.92
2016-12-08T04:31:32.156Z,746.96
2016-12-08T04:32:32.142Z,746.92
2016-12-08T04:33:32.128Z,746.94
2016-12-08T04:34:32.114Z,746.97
2016-12-08T04:35:32.098Z,746.94
2016-12-08T04:36:32.083Z,746.93
2016-12-08T04:37:32.068Z,746.98
2016-12-08T04:38:32.054Z,746.98
2016-12-08T04:39:32.039Z,746.95
2016-12-08T04:40:32.024Z,746.96
2016-12-08T04:41:32.010Z,746.95
2016-12-08T04:42:31.995Z,746.93
2016-12-08T04:43:31.980Z,746.94
2016-12-08T04:44:31.965Z,746.96
2016-12-08T04:45:31.949Z,746.93
2016-12-08T04:46:31.935Z,746.94
2016-12-08T04:47:31.920Z,746.94
2016-12-08T04:48:31.906Z,746.9
2016-12-08T04:49:31.890Z,746.9
2016-12-08T04:50:31.875Z,746.91
2016-12-08T04:51:31.860Z,746.95
2016-12-08T04:52:31.846Z,746.98
2016-12-08T04:53:31.830Z,746.92
2016-12-08T04:54:31.816Z,746.97
2016-12-08T04:55:31.801Z,746.96
2016-12-08T04:56:31.785Z,746.91
2016-12-08T04:57:31.771Z,746.91
2016-12-08T04:58:31.756Z,746.93
2016-12-08T04:59:31.741Z,746.93
2016-12-08T05:00:31.725Z,746.98
2016-12-08T05:01:31.711Z,746.92
2016-12-08T05:02:31.696Z,746.94
2016-12-08T05:03:31.682Z,746.91
2016-12-08T05:04:31.666Z,746.92
2016-12-08T05:05:31.651Z,746.94
2016-12-08T05:06:31.637Z,746.94
2016-12-08T05:07:31.621Z,746.95
2016-12-08T05:08:31.607Z,746.95
2016-12-08T05:09:31.592Z,746.93
2016-12-08T05:10:31.579Z,746.95
2016-12-08T05:11:31.562Z,746.94
2016-12-08T05:12:31.547Z,746.94
2016-12-08T05:13:31.534Z,746.93
2016-12-08T05:14:31.518Z,746.95
2016-12-08T05:15:31.502Z,746.91
2016-12-08T05:16:31.497Z,746.96
2016-12-08T05:17:31.473Z,746.93
2016-12-08T05:18:31.457Z,746.91
2016-12-08T05:19:31.443Z,746.93
2016-12-08T05:20:31.428Z,746.96
2016-12-08T05:21:31.414Z,746.94
2016-12-08T05:22:31.398Z,746.91
2016-12-08T05:23:31.362Z,746.92
2016-12-08T05:24:31.350Z,746.95
2016-12-08T05:25:31.331Z,746.91
2016-12-08T05:26:31.318Z,746.92
2016-12-08T05:27:31.303Z,746.91
2016-12-08T05:28:31.295Z,746.93
2016-12-08T05:29:31.272Z,746.95
2016-12-08T05:30:31.265Z,746.9
2016-12-08T05:31:31.243Z,746.93
2016-12-08T05:32:31.229Z,746.89
2016-12-08T05:33:31.213Z,746.91
2016-12-08T05:34:31.206Z,746.89
2016-12-08T05:35:31.191Z,746.87
2016-12-08T05:36:31.176Z,746.86
2016-12-08T05:37:31.161Z,746.88
2016-12-08T05:38:31.147Z,746.86
2016-12-08T05:39:31.132Z,746.86
2016-12-08T05:40:31.110Z,746.85
2016-12-08T05:41:31.105Z,746.88
2016-12-08T05:42:31.081Z,746.92
2016-12-08T05:43:31.067Z,746.93
2016-12-08T05:44:31.052Z,746.92
2016-12-08T05:45:31.044Z,746.96
2016-12-08T05:46:31.031Z,746.96
2016-12-08T05:47:31.008Z,746.9
2016-12-08T05:48:31.000Z,746.95
2016-12-08T05:49:30.979Z,746.94
2016-12-08T05:50:30.972Z,746.94
2016-12-08T05:51:30.950Z,746.96
2016-12-08T05:52:30.935Z,746.98
2016-12-08T05:53:30.927Z,746.97
2016-12-08T05:54:30.906Z,746.98
2016-12-08T05:55:30.897Z,746.99
2016-12-08T05:56:30.883Z,746.99
2016-12-08T05:57:30.863Z,747.04
2016-12-08T05:58:30.854Z,747
2016-12-08T05:59:30.832Z,746.98
2016-12-08T06:00:30.824Z,746.99
2016-12-08T06:01:30.811Z,747
2016-12-08T06:02:30.795Z,746.99
2016-12-08T06:03:30.781Z,747.01
2016-12-08T06:04:30.767Z,747
2016-12-08T06:05:30.745Z,747.02
2016-12-08T06:06:30.731Z,747.05
2016-12-08T06:07:30.722Z,747.02
2016-12-08T06:08:30.702Z,747.01
2016-12-08T06:09:30.687Z,747.05
2016-12-08T06:10:30.673Z,747.08
2016-12-08T06:11:30.665Z,747.03
2016-12-08T06:12:30.651Z,747.05
2016-12-08T06:13:30.636Z,747.03
2016-12-08T06:14:30.615Z,747.06
2016-12-08T06:15:30.608Z,747.07
2016-12-08T06:16:30.587Z,747.12
2016-12-08T06:17:30.573Z,747.12
2016-12-08T06:18:30.564Z,747.09
2016-12-08T06:19:30.551Z,747.09
2016-12-08T06:20:30.535Z,747.11
2016-12-08T06:21:30.521Z,747.15
2016-12-08T06:22:30.500Z,747.13
2016-12-08T06:23:30.486Z,747.13
2016-12-08T06:24:30.471Z,747.13
2016-12-08T06:25:30.457Z,747.11
2016-12-08T06:26:30.450Z,747.1
2016-12-08T06:27:30.434Z,747.1
2016-12-08T06:28:30.413Z,747.1
2016-12-08T06:29:30.398Z,747.1
2016-12-08T06:30:30.386Z,747.11
2016-12-08T06:31:30.368Z,747.13
2016-12-08T06:32:30.361Z,747.13
2016-12-08T06:33:30.339Z,747.14
2016-12-08T06:34:30.332Z,747.12
2016-12-08T06:35:30.315Z,747.14
2016-12-08T06:36:30.302Z,747.17
2016-12-08T06:37:30.280Z,747.16
2016-12-08T06:38:30.271Z,747.15
2016-12-08T06:39:30.250Z,747.16
2016-12-08T06:40:30.235Z,747.15
2016-12-08T06:41:30.228Z,747.13
2016-12-08T06:42:30.205Z,747.12
2016-12-08T06:43:30.190Z,747.12
2016-12-08T06:44:30.183Z,747.14
2016-12-08T06:45:30.168Z,747.13
2016-12-08T06:46:30.145Z,747.13
2016-12-08T06:47:30.140Z,747.11
2016-12-08T06:48:30.116Z,747.12
2016-12-08T06:49:30.101Z,747.11
2016-12-08T06:50:30.085Z,747.11
2016-12-08T06:51:30.071Z,747.1
2016-12-08T06:52:30.063Z,747.12
2016-12-08T06:53:30.047Z,747.1
2016-12-08T06:54:30.032Z,747.12
2016-12-08T06:55:30.019Z,747.16
2016-12-08T06:56:29.997Z,747.12
2016-12-08T06:57:29.982Z,747.17
2016-12-08T06:58:29.974Z,747.13
2016-12-08T06:59:29.958Z,747.14
2016-12-08T07:00:29.937Z,747.15
2016-12-08T07:01:29.923Z,747.21
2016-12-08T07:02:29.916Z,747.21
2016-12-08T07:03:29.901Z,747.21
2016-12-08T07:04:29.886Z,747.23
2016-12-08T07:05:29.871Z,747.17
2016-12-08T07:06:29.849Z,747.23
2016-12-08T07:07:29.843Z,747.16
2016-12-08T07:08:29.827Z,747.22
2016-12-08T07:09:29.813Z,747.18
2016-12-08T07:10:29.799Z,747.2
2016-12-08T07:11:29.776Z,747.19
2016-12-08T07:12:29.762Z,747.23
2016-12-08T07:13:29.755Z,747.25
2016-12-08T07:14:29.741Z,747.29
2016-12-08T07:15:29.726Z,747.26
2016-12-08T07:16:29.705Z,747.22
2016-12-08T07:17:29.699Z,747.21
2016-12-08T07:18:29.683Z,747.24
2016-12-08T07:19:29.670Z,747.24
2016-12-08T07:20:29.649Z,747.26
2016-12-08T07:21:29.642Z,747.26
2016-12-08T07:22:29.620Z,747.28
2016-12-08T07:23:29.614Z,747.26
2016-12-08T07:24:29.593Z,747.3
2016-12-08T07:25:29.579Z,747.27
2016-12-08T07:26:29.575Z,747.29
2016-12-08T07:27:29.552Z,747.32
2016-12-08T07:28:29.545Z,747.33
2016-12-08T07:29:29.525Z,747.3
2016-12-08T07:30:29.517Z,747.34
2016-12-08T07:31:29.504Z,747.32
2016-12-08T07:32:29.492Z,747.33
2016-12-08T07:33:29.476Z,747.35
2016-12-08T07:34:29.465Z,747.33
2016-12-08T07:35:29.444Z,747.3
2016-12-08T07:36:29.439Z,747.36
2016-12-08T07:37:29.417Z,747.35
2016-12-08T07:38:29.404Z,747.34
2016-12-08T07:39:29.391Z,747.36
2016-12-08T07:40:29.385Z,747.33
2016-12-08T07:41:29.373Z,747.33
2016-12-08T07:42:29.359Z,747.35
2016-12-08T07:43:29.346Z,747.41
2016-12-08T07:44:29.326Z,747.35
2016-12-08T07:45:29.320Z,747.33
2016-12-08T07:46:29.308Z,747.35
2016-12-08T07:47:29.289Z,747.34
2016-12-08T07:48:29.276Z,747.34
2016-12-08T07:49:29.270Z,747.35
2016-12-08T07:50:29.259Z,747.34
2016-12-08T07:51:29.240Z,747.36
2016-12-08T07:52:29.229Z,747.33
2016-12-08T07:53:29.217Z,747.36
2016-12-08T07:54:29.211Z,747.36
2016-12-08T07:55:29.190Z,747.37
2016-12-08T07:56:29.178Z,747.37
2016-12-08T07:57:29.174Z,747.35
2016-12-08T07:58:29.155Z,747.34
2016-12-08T07:59:29.141Z,747.42
2016-12-08T08:00:29.136Z,747.37
2016-12-08T08:01:29.118Z,747.38
2016-12-08T08:02:29.113Z,747.41
2016-12-08T08:03:29.093Z,747.42
2016-12-08T08:04:29.089Z,747.4
2016-12-08T08:05:29.076Z,747.42
2016-12-08T08:06:29.057Z,747.44
2016-12-08T08:07:29.052Z,747.43
2016-12-08T08:08:29.033Z,747.46
2016-12-08T08:09:29.028Z,747.44
2016-12-08T08:10:29.009Z,747.43
2016-12-08T08:11:29.003Z,747.42
2016-12-08T08:12:28.987Z,747.43
2016-12-08T08:13:28.975Z,747.43
2016-12-08T08:14:28.960Z,747.44
2016-12-08T08:15:28.955Z,747.44
2016-12-08T08:16:28.936Z,747.42
2016-12-08T08:17:28.924Z,747.46
2016-12-08T08:18:28.912Z,747.43
2016-12-08T08:19:28.900Z,747.46
2016-12-08T08:20:28.895Z,747.53
2016-12-08T08:21:28.882Z,747.42
2016-12-08T08:22:28.869Z,747.47
2016-12-08T08:23:28.851Z,747.48
2016-12-08T08:24:28.840Z,747.46
2016-12-08T08:25:28.829Z,747.47
2016-12-08T08:26:28.822Z,747.48
2016-12-08T08:27:28.809Z,747.49
2016-12-08T08:28:28.790Z,747.45
2016-12-08T08:29:28.785Z,747.47
2016-12-08T08:30:28.772Z,747.45
2016-12-08T08:31:28.762Z,747.45
2016-12-08T08:32:28.748Z,747.49
2016-12-08T08:33:28.729Z,747.49
2016-12-08T08:34:28.718Z,747.49
2016-12-08T08:35:28.713Z,747.51
2016-12-08T08:36:28.700Z,747.49
2016-12-08T08:37:28.690Z,747.51
2016-12-08T08:38:28.671Z,747.52
2016-12-08T08:39:28.665Z,747.51
2016-12-08T08:40:28.647Z,747.57
2016-12-08T08:41:28.636Z,747.55
2016-12-08T08:42:28.631Z,747.56
2016-12-08T08:43:28.621Z,747.55
2016-12-08T08:44:28.607Z,747.56
2016-12-08T08:45:28.589Z,747.57
2016-12-08T08:46:28.582Z,747.57
2016-12-08T08:47:28.564Z,747.57
2016-12-08T08:48:28.561Z,747.6
2016-12-08T08:49:28.541Z,747.59
2016-12-08T08:50:28.535Z,747.63
2016-12-08T08:51:28.522Z,747.6
2016-12-08T08:52:28.506Z,747.62
2016-12-08T08:53:28.495Z,747.68
2016-12-08T08:54:28.483Z,747.65
2016-12-08T08:55:28.472Z,747.64
2016-12-08T08:56:28.468Z,747.61
2016-12-08T08:57:28.455Z,747.6
2016-12-08T08:58:28.438Z,747.64
2016-12-08T08:59:28.428Z,747.65
2016-12-08T09:00:28.417Z,747.68
2016-12-08T09:01:28.406Z,747.69
2016-12-08T09:02:28.395Z,747.69
2016-12-08T09:03:28.385Z,747.68
2016-12-08T09:04:28.372Z,747.71
2016-12-08T09:05:28.364Z,747.73
2016-12-08T09:06:28.354Z,747.7
2016-12-08T09:07:28.351Z,747.73
2016-12-08T09:08:28.333Z,747.71
2016-12-08T09:09:28.323Z,747.74
2016-12-08T09:10:28.319Z,747.74
2016-12-08T09:11:28.310Z,747.75
2016-12-08T09:12:28.292Z,747.74
2016-12-08T09:13:28.282Z,747.74
2016-12-08T09:14:28.274Z,747.72
2016-12-08T09:15:28.272Z,747.74
2016-12-08T09:16:28.252Z,747.74
2016-12-08T09:17:28.248Z,747.69
2016-12-08T09:18:28.232Z,747.7
2016-12-08T09:19:28.221Z,747.73
2016-12-08T09:20:28.211Z,747.72
2016-12-08T09:21:28.201Z,747.67
2016-12-08T09:22:28.198Z,747.71
2016-12-08T09:23:28.180Z,747.67
2016-12-08T09:24:28.177Z,747.66
2016-12-08T09:25:28.167Z,747.69
2016-12-08T09:26:28.157Z,747.65
2016-12-08T09:27:28.145Z,747.65
2016-12-08T09:28:28.129Z,747.63
2016-12-08T09:29:28.119Z,747.62
2016-12-08T09:30:28.107Z,747.66
2016-12-08T09:31:28.098Z,747.64
2016-12-08T09:32:28.094Z,747.62
2016-12-08T09:33:28.085Z,747.6
2016-12-08T09:34:28.075Z,747.58
2016-12-08T09:35:28.057Z,747.58
2016-12-08T09:36:28.047Z,747.59
2016-12-08T09:37:28.042Z,747.58
2016-12-08T09:38:28.025Z,747.6
2016-12-08T09:39:28.022Z,747.58
2016-12-08T09:40:28.012Z,747.56
2016-12-08T09:41:27.994Z,747.56
2016-12-08T09:42:27.990Z,747.59
2016-12-08T09:43:27.980Z,747.61
2016-12-08T09:44:27.971Z,747.57
2016-12-08T09:45:27.953Z,747.59
2016-12-08T09:46:27.951Z,747.56
2016-12-08T09:47:27.933Z,747.56
2016-12-08T09:48:27.930Z,747.6
2016-12-08T09:49:27.918Z,747.58
2016-12-08T09:50:27.902Z,747.58
2016-12-08T09:51:27.897Z,747.58
2016-12-08T09:52:27.887Z,747.59
2016-12-08T09:53:27.876Z,747.52
2016-12-08T09:54:27.865Z,747.56
2016-12-08T09:55:27.849Z,747.55
2016-12-08T09:56:27.837Z,747.55
2016-12-08T09:57:27.834Z,747.55
2016-12-08T09:58:27.824Z,747.58
2016-12-08T09:59:27.809Z,747.58
2016-12-08T10:00:27.802Z,747.57
2016-12-08T10:01:27.792Z,747.54
2016-12-08T10:02:27.781Z,747.57
2016-12-08T10:03:27.763Z,747.52
2016-12-08T10:04:27.752Z,747.51
2016-12-08T10:05:27.747Z,747.44
2016-12-08T10:06:27.738Z,747.47
2016-12-08T10:07:27.718Z,747.47
2016-12-08T10:08:27.707Z,747.5
2016-12-08T10:09:27.697Z,747.46
2016-12-08T10:10:27.696Z,747.41
2016-12-08T10:11:27.674Z,747.4
2016-12-08T10:12:27.670Z,747.4
2016-12-08T10:13:27.652Z,747.35
2016-12-08T10:14:27.639Z,747.42
2016-12-08T10:15:27.634Z,747.4
2016-12-08T10:16:27.622Z,747.39
2016-12-08T10:17:27.604Z,747.39
2016-12-08T10:18:27.592Z,747.39
2016-12-08T10:19:27.580Z,747.41
2016-12-08T10:20:27.568Z,747.33
2016-12-08T10:21:27.555Z,747.34
2016-12-08T10:22:27.543Z,747.32
2016-12-08T10:23:27.537Z,747.32
2016-12-08T10:24:27.526Z,747.31
2016-12-08T10:25:27.513Z,747.27
2016-12-08T10:26:27.494Z,747.28
2016-12-08T10:27:27.489Z,747.29
2016-12-08T10:28:27.477Z,747.29
2016-12-08T10:29:27.457Z,747.28
2016-12-08T10:30:27.444Z,747.27
2016-12-08T10:31:27.440Z,747.25
2016-12-08T10:32:27.419Z,747.26
2016-12-08T10:33:27.414Z,747.24
2016-12-08T10:34:27.401Z,747.24
2016-12-08T10:35:27.389Z,747.27
2016-12-08T10:36:27.376Z,747.29
2016-12-08T10:37:27.363Z,747.27
2016-12-08T10:38:27.344Z,747.23
2016-12-08T10:39:27.338Z,747.24
2016-12-08T10:40:27.324Z,747.17
2016-12-08T10:41:27.305Z,747.21
2016-12-08T10:42:27.299Z,747.21
2016-12-08T10:43:27.285Z,747.24
2016-12-08T10:44:27.273Z,747.25
2016-12-08T10:45:27.261Z,747.19
2016-12-08T10:46:27.247Z,747.26
2016-12-08T10:47:27.235Z,747.17
2016-12-08T10:48:27.222Z,747.25
2016-12-08T10:49:27.203Z,747.23
2016-12-08T10:50:27.196Z,747.17
2016-12-08T10:51:27.177Z,747.18
2016-12-08T10:52:27.165Z,747.26
2016-12-08T10:53:27.152Z,747.25
2016-12-08T10:54:27.139Z,747.2
2016-12-08T10:55:27.133Z,747.27
2016-12-08T10:56:27.115Z,747.24
2016-12-08T10:57:27.103Z,747.21
2016-12-08T10:58:27.090Z,747.2
2016-12-08T10:59:27.078Z,747.16
2016-12-08T11:00:27.065Z,747.2
2016-12-08T11:01:27.060Z,747.17
2016-12-08T11:02:27.040Z,747.16
2016-12-08T11:03:27.029Z,747.14
2016-12-08T11:04:27.017Z,747.12
2016-12-08T11:05:27.005Z,747.12
2016-12-08T11:06:26.992Z,747.15
2016-12-08T11:07:26.988Z,747.12
2016-12-08T11:08:26.975Z,747.17
2016-12-08T11:09:26.956Z,747.16
2016-12-08T11:10:26.944Z,747.13
2016-12-08T11:11:26.933Z,747.14
2016-12-08T11:12:26.930Z,747.16
2016-12-08T11:13:26.916Z,747.14
2016-12-08T11:14:26.903Z,747.14
2016-12-08T11:15:26.893Z,747.14
2016-12-08T11:16:26.879Z,747.12
2016-12-08T11:17:26.868Z,747.1
2016-12-08T11:18:26.857Z,747.11
2016-12-08T11:19:26.844Z,747.06
2016-12-08T11:20:26.826Z,747.08
2016-12-08T11:21:26.821Z,747.06
2016-12-08T11:22:26.803Z,747.03
2016-12-08T11:23:26.791Z,747.04
2016-12-08T11:24:26.786Z,747.05
2016-12-08T11:25:26.774Z,747.04
2016-12-08T11:26:26.762Z,747.03
2016-12-08T11:27:26.749Z,747.04
2016-12-08T11:28:26.739Z,747.03
2016-12-08T11:29:26.724Z,747.02
2016-12-08T11:30:26.708Z,747.02
2016-12-08T11:31:26.701Z,747.02
2016-12-08T11:32:26.698Z,747.01
2016-12-08T11:33:26.679Z,747.01
2016-12-08T11:34:26.669Z,747
2016-12-08T11:35:26.647Z,747
2016-12-08T11:36:26.636Z,747.02
2016-12-08T11:37:26.625Z,747.05
2016-12-08T11:38:26.618Z,747.03
2016-12-08T11:39:26.607Z,747.03
2016-12-08T11:40:26.594Z,746.97
2016-12-08T11:41:26.583Z,746.99
2016-12-08T11:42:26.564Z,746.99
2016-12-08T11:43:26.558Z,746.99
2016-12-08T11:44:26.540Z,746.97
2016-12-08T11:45:26.535Z,746.92
2016-12-08T11:46:26.518Z,746.91
2016-12-08T11:47:26.506Z,746.99
2016-12-08T11:48:26.495Z,746.96
2016-12-08T11:49:26.482Z,746.96
2016-12-08T11:50:26.478Z,746.95
2016-12-08T11:51:26.466Z,746.92
2016-12-08T11:52:26.447Z,746.89
2016-12-08T11:53:26.435Z,746.85
2016-12-08T11:54:26.423Z,746.84
2016-12-08T11:55:26.411Z,746.8
2016-12-08T11:56:26.405Z,746.81
2016-12-08T11:57:26.387Z,746.8
2016-12-08T11:58:26.375Z,746.8
2016-12-08T11:59:26.369Z,746.78
2016-12-08T12:00:26.357Z,746.78
2016-12-08T12:01:26.338Z,746.82
2016-12-08T12:02:26.325Z,746.78
2016-12-08T12:03:26.314Z,746.77
2016-12-08T12:04:26.307Z,746.83
2016-12-08T12:05:26.295Z,746.78
2016-12-08T12:06:26.283Z,746.79
2016-12-08T12:07:26.269Z,746.77
2016-12-08T12:08:26.257Z,746.78
2016-12-08T12:09:26.244Z,746.71
2016-12-08T12:10:26.226Z,746.71
2016-12-08T12:11:26.220Z,746.71
2016-12-08T12:12:26.207Z,746.71
2016-12-08T12:13:26.194Z,746.7
2016-12-08T12:14:26.176Z,746.7
2016-12-08T12:15:26.169Z,746.74
2016-12-08T12:16:26.157Z,746.73
2016-12-08T12:17:26.138Z,746.71
2016-12-08T12:18:26.131Z,746.72
2016-12-08T12:19:26.112Z,746.69
2016-12-08T12:20:26.107Z,746.71
2016-12-08T12:21:26.087Z,746.7
2016-12-08T12:22:26.075Z,746.66
2016-12-08T12:23:26.062Z,746.71
2016-12-08T12:24:26.049Z,746.72
2016-12-08T12:25:26.044Z,746.71
2016-12-08T12:26:26.023Z,746.67
2016-12-08T12:27:26.018Z,746.73
2016-12-08T12:28:25.998Z,746.68
2016-12-08T12:29:25.985Z,746.71
2016-12-08T12:30:25.973Z,746.67